Terminal Aerodrome Forecast
Issued by NWS

Home | Current Version | Previous Version | Text Only | Print | Product List | Glossary On
Versions: 1 2 3 4 5 6 7 8 9 10 11 12 13 14 15 16 17 18 19 20
000
FTUS45 KTFX 272300
TAFLWT
TAF
KLWT 272339Z 2800/2824 23015KT P6SM SCT090 WS020/27045KT
     FM281500 23015G25KT P6SM SCT050 OVC090=

USA.gov is the U.S. government's official web portal to all federal, state and local government web resources and services.